createdAt,value
2023-03-19T00:00:30.131Z,24.02
2023-03-19T00:02:57.332Z,21.17
2023-03-19T00:05:24.506Z,21.55
2023-03-19T00:07:51.589Z,20.92
2023-03-19T00:10:18.673Z,22.00
2023-03-19T00:12:45.839Z,22.05
2023-03-19T00:15:14.735Z,21.30
2023-03-19T00:17:44.963Z,22.73
2023-03-19T00:20:15.129Z,23.55
2023-03-19T00:22:42.361Z,23.10
2023-03-19T00:25:10.208Z,23.48
2023-03-19T00:27:38.294Z,24.33
2023-03-19T00:30:07.068Z,22.95
2023-03-19T00:32:35.881Z,22.58
2023-03-19T00:35:03.909Z,23.55
2023-03-19T00:37:30.905Z,23.25
2023-03-19T00:39:57.884Z,27.25
2023-03-19T00:42:24.901Z,22.67
2023-03-19T00:44:52.013Z,22.38
2023-03-19T00:47:19.212Z,22.33
2023-03-19T00:49:46.190Z,21.60
2023-03-19T00:52:13.179Z,21.58
2023-03-19T00:54:40.659Z,21.63
2023-03-19T00:57:07.696Z,21.30
2023-03-19T00:59:34.778Z,21.90
2023-03-19T01:02:01.777Z,22.15
2023-03-19T01:04:29.068Z,21.42
2023-03-19T01:06:56.353Z,21.17
2023-03-19T01:09:23.350Z,21.52
2023-03-19T01:11:50.489Z,20.98
2023-03-19T01:14:18.039Z,21.35
2023-03-19T01:16:45.775Z,20.85
2023-03-19T01:19:12.916Z,21.17
2023-03-19T01:21:40.079Z,21.95
2023-03-19T01:24:07.077Z,21.17
2023-03-19T01:26:34.042Z,20.85
2023-03-19T01:29:01.152Z,24.02
2023-03-19T01:31:28.305Z,21.60
2023-03-19T01:33:55.857Z,23.33
2023-03-19T01:36:22.885Z,21.58
2023-03-19T01:38:50.058Z,21.60
2023-03-19T01:41:17.397Z,21.27
2023-03-19T01:43:44.438Z,21.60
2023-03-19T01:46:16.885Z,21.55
2023-03-19T01:48:50.030Z,22.10
2023-03-19T01:51:20.405Z,22.95
2023-03-19T01:53:54.073Z,21.88
2023-03-19T01:56:34.651Z,22.13
2023-03-19T01:59:25.752Z,21.05
2023-03-19T02:02:01.067Z,21.10
2023-03-19T02:04:29.055Z,22.10
2023-03-19T02:06:56.802Z,21.08
2023-03-19T02:09:25.829Z,21.00
2023-03-19T02:11:53.472Z,21.70
2023-03-19T02:14:20.695Z,20.73
2023-03-19T02:16:48.127Z,20.98
2023-03-19T02:19:27.970Z,20.95
2023-03-19T02:21:56.530Z,20.45
2023-03-19T02:24:32.822Z,22.73
2023-03-19T02:27:00.579Z,20.27
2023-03-19T02:29:27.570Z,20.45
2023-03-19T02:31:54.580Z,21.05
2023-03-19T02:34:21.553Z,20.08
2023-03-19T02:36:52.340Z,19.27
2023-03-19T02:39:57.322Z,19.30
2023-03-19T02:42:27.515Z,21.13
2023-03-19T02:44:54.568Z,21.13
2023-03-19T02:47:21.569Z,20.35
2023-03-19T02:49:48.548Z,18.90
2023-03-19T02:52:15.671Z,18.15
2023-03-19T02:54:42.693Z,18.67
2023-03-19T02:57:09.717Z,18.10
2023-03-19T02:59:36.744Z,17.67
2023-03-19T03:02:03.729Z,18.40
2023-03-19T03:04:31.623Z,18.80
2023-03-19T03:06:59.174Z,18.23
2023-03-19T03:09:27.242Z,18.50
2023-03-19T03:11:54.415Z,18.27
2023-03-19T03:14:21.460Z,17.83
2023-03-19T03:16:48.987Z,17.88
2023-03-19T03:19:16.049Z,18.08
2023-03-19T03:21:43.352Z,18.52
2023-03-19T03:24:11.104Z,17.98
2023-03-19T03:26:39.143Z,18.65
2023-03-19T03:29:07.078Z,17.85
2023-03-19T03:31:35.075Z,18.27
2023-03-19T03:34:02.789Z,16.98
2023-03-19T03:36:29.841Z,17.70
2023-03-19T03:38:56.810Z,17.73
2023-03-19T03:41:23.977Z,17.33
2023-03-19T03:43:51.190Z,17.92
2023-03-19T03:46:18.444Z,18.25
2023-03-19T03:48:45.508Z,18.27
2023-03-19T03:51:12.566Z,18.20
2023-03-19T03:53:39.533Z,17.08
2023-03-19T03:56:06.809Z,17.17
2023-03-19T03:58:33.786Z,16.67
2023-03-19T04:01:00.899Z,16.75
2023-03-19T04:03:28.232Z,16.90
2023-03-19T04:05:55.237Z,17.50
2023-03-19T04:08:22.675Z,17.15
2023-03-19T04:10:49.758Z,17.67
2023-03-19T04:13:16.829Z,16.60
2023-03-19T04:15:44.770Z,16.42
2023-03-19T04:18:11.885Z,17.20
2023-03-19T04:20:38.901Z,17.85
2023-03-19T04:23:05.908Z,16.50
2023-03-19T04:25:33.044Z,16.60
2023-03-19T04:28:00.013Z,16.08
2023-03-19T04:30:27.845Z,17.10
2023-03-19T04:32:55.069Z,17.02
2023-03-19T04:35:22.967Z,16.83
2023-03-19T04:37:49.943Z,17.63
2023-03-19T04:40:17.286Z,17.10
2023-03-19T04:42:47.074Z,17.40
2023-03-19T04:45:14.319Z,17.30
2023-03-19T04:47:41.385Z,16.40
2023-03-19T04:50:09.647Z,17.20
2023-03-19T04:52:37.615Z,16.60
2023-03-19T04:55:06.851Z,16.80
2023-03-19T04:57:34.126Z,16.98
2023-03-19T05:00:01.334Z,17.13
2023-03-19T05:02:28.327Z,17.60
2023-03-19T05:04:55.504Z,17.10
2023-03-19T05:07:22.469Z,16.88
2023-03-19T05:09:50.240Z,17.23
2023-03-19T05:12:17.216Z,17.65
2023-03-19T05:14:44.215Z,19.70
2023-03-19T05:17:11.468Z,20.23
2023-03-19T05:19:39.658Z,18.40
2023-03-19T05:22:06.721Z,18.17
2023-03-19T05:24:33.656Z,19.02
2023-03-19T05:27:00.727Z,19.77
2023-03-19T05:29:28.099Z,20.50
2023-03-19T05:31:55.066Z,19.15
2023-03-19T05:34:22.132Z,20.70
2023-03-19T05:36:49.180Z,19.38
2023-03-19T05:39:16.124Z,18.83
2023-03-19T05:41:43.121Z,18.73
2023-03-19T05:44:10.179Z,18.67
2023-03-19T05:46:37.277Z,19.88
2023-03-19T05:49:05.360Z,19.20
2023-03-19T05:51:32.500Z,18.85
2023-03-19T05:53:59.519Z,18.88
2023-03-19T05:56:27.075Z,19.60
2023-03-19T05:58:54.103Z,17.85
2023-03-19T06:01:22.125Z,18.55
2023-03-19T06:03:49.173Z,17.10
2023-03-19T06:06:16.162Z,17.25
2023-03-19T06:08:43.174Z,16.80
2023-03-19T06:11:10.155Z,17.13
2023-03-19T06:13:37.104Z,17.23
2023-03-19T06:16:04.253Z,17.10
2023-03-19T06:18:32.151Z,18.17
2023-03-19T06:20:59.250Z,17.90
2023-03-19T06:23:26.738Z,17.83
2023-03-19T06:25:53.794Z,17.92
2023-03-19T06:28:20.792Z,18.90
2023-03-19T06:30:47.864Z,18.45
2023-03-19T06:33:14.886Z,18.48
2023-03-19T06:35:42.380Z,18.75
2023-03-19T06:38:09.325Z,20.23
2023-03-19T06:40:36.535Z,24.40
2023-03-19T06:43:03.548Z,21.63
2023-03-19T06:45:31.043Z,22.27
2023-03-19T06:47:58.009Z,24.35
2023-03-19T06:50:25.001Z,24.10
2023-03-19T06:52:52.198Z,24.13
2023-03-19T06:55:20.579Z,26.02
2023-03-19T06:57:51.389Z,26.38
2023-03-19T07:00:19.408Z,28.15
2023-03-19T07:02:46.461Z,29.77
2023-03-19T07:05:13.627Z,32.60
2023-03-19T07:07:40.849Z,35.70
2023-03-19T07:10:08.935Z,38.75
2023-03-19T07:12:35.900Z,41.53
2023-03-19T07:15:03.567Z,36.28
2023-03-19T07:17:31.023Z,31.88
2023-03-19T07:19:58.235Z,29.15
2023-03-19T07:22:25.306Z,28.38
2023-03-19T07:24:52.446Z,30.38
2023-03-19T07:27:19.551Z,30.08
2023-03-19T07:29:46.545Z,29.38
2023-03-19T07:32:13.718Z,28.42
2023-03-19T07:34:40.798Z,27.40
2023-03-19T07:37:07.861Z,27.65
2023-03-19T07:39:34.818Z,27.63
2023-03-19T07:42:01.766Z,31.90
2023-03-19T07:44:28.789Z,32.08
2023-03-19T07:46:55.845Z,29.00
2023-03-19T07:49:23.815Z,26.38
2023-03-19T07:51:51.344Z,28.55
2023-03-19T07:54:18.461Z,27.33
2023-03-19T07:56:48.312Z,28.13
2023-03-19T07:59:15.458Z,26.90
2023-03-19T08:01:42.491Z,25.85
2023-03-19T08:04:09.476Z,27.65
2023-03-19T08:06:36.512Z,26.35
2023-03-19T08:09:03.590Z,25.05
2023-03-19T08:11:30.563Z,28.08
2023-03-19T08:13:57.565Z,38.40
2023-03-19T08:16:24.590Z,27.17
2023-03-19T08:18:52.640Z,26.50
2023-03-19T08:21:19.694Z,24.65
2023-03-19T08:23:46.744Z,25.42
2023-03-19T08:26:13.821Z,24.30
2023-03-19T08:28:40.878Z,26.10
2023-03-19T08:31:09.892Z,26.23
2023-03-19T08:33:37.055Z,26.60
2023-03-19T08:36:09.800Z,27.70
2023-03-19T08:38:37.218Z,26.80
2023-03-19T08:41:04.693Z,26.52
2023-03-19T08:43:32.790Z,26.08
2023-03-19T08:46:01.022Z,26.58
2023-03-19T08:48:28.186Z,25.65
2023-03-19T08:51:02.719Z,24.38
2023-03-19T08:53:31.187Z,24.45
2023-03-19T08:56:03.522Z,25.50
2023-03-19T08:58:31.286Z,27.48
2023-03-19T09:01:10.977Z,24.67
2023-03-19T09:03:39.239Z,41.25
2023-03-19T09:06:08.466Z,25.77
2023-03-19T09:08:37.381Z,25.50
2023-03-19T09:11:05.989Z,25.42
2023-03-19T09:13:34.723Z,26.15
2023-03-19T09:16:01.927Z,24.77
2023-03-19T09:18:29.012Z,26.08
2023-03-19T09:20:56.044Z,27.85
2023-03-19T09:23:23.161Z,25.13
2023-03-19T09:25:50.604Z,30.38
2023-03-19T09:28:18.248Z,21.98
2023-03-19T09:30:49.934Z,23.65
2023-03-19T09:33:18.134Z,22.55
2023-03-19T09:35:51.271Z,21.92
2023-03-19T09:38:19.389Z,22.47
2023-03-19T09:41:03.075Z,24.23
2023-03-19T09:43:33.163Z,22.00
2023-03-19T09:46:03.307Z,22.58
2023-03-19T09:49:01.057Z,22.30
2023-03-19T09:51:41.700Z,22.77
2023-03-19T09:54:41.038Z,22.88
2023-03-19T09:57:12.190Z,22.45
2023-03-19T09:59:40.703Z,21.77
2023-03-19T10:02:19.585Z,22.17
2023-03-19T10:04:47.485Z,21.38
2023-03-19T10:07:53.534Z,21.52
2023-03-19T10:10:56.297Z,23.45
2023-03-19T10:13:31.894Z,22.92
2023-03-19T10:16:01.544Z,22.00
2023-03-19T10:18:50.530Z,22.58
2023-03-19T10:21:29.929Z,21.85
2023-03-19T10:24:06.958Z,20.70
2023-03-19T10:26:35.921Z,20.55
2023-03-19T10:29:13.434Z,17.55
2023-03-19T10:32:09.619Z,19.63
2023-03-19T10:34:44.135Z,17.55
2023-03-19T10:37:16.543Z,18.05
2023-03-19T10:39:45.636Z,18.80
2023-03-19T10:42:41.430Z,19.10
2023-03-19T10:45:14.386Z,17.73
2023-03-19T10:47:43.373Z,16.60
2023-03-19T10:50:33.469Z,16.90
2023-03-19T10:53:14.938Z,16.65
2023-03-19T10:56:00.621Z,17.42
2023-03-19T10:58:29.924Z,16.70
2023-03-19T11:01:07.255Z,16.77
2023-03-19T11:03:40.020Z,18.30
2023-03-19T11:06:23.118Z,18.02
2023-03-19T11:08:56.261Z,18.65
2023-03-19T11:11:42.679Z,17.90
2023-03-19T11:14:19.709Z,18.77
2023-03-19T11:17:04.892Z,18.08
2023-03-19T11:19:39.700Z,16.75
2023-03-19T11:22:12.759Z,16.58
2023-03-19T11:24:42.128Z,17.83
2023-03-19T11:27:11.676Z,15.70
2023-03-19T11:29:42.844Z,17.27
2023-03-19T11:32:39.124Z,17.02
2023-03-19T11:35:12.130Z,16.50
2023-03-19T11:38:03.105Z,16.30
2023-03-19T11:40:57.797Z,16.40
2023-03-19T11:44:02.212Z,15.45
2023-03-19T11:46:55.672Z,16.85
2023-03-19T11:49:46.686Z,17.70
2023-03-19T11:52:19.853Z,15.88
2023-03-19T11:55:08.583Z,17.48
2023-03-19T11:58:06.094Z,17.95
2023-03-19T12:00:52.339Z,18.80
2023-03-19T12:03:51.712Z,16.08
2023-03-19T12:07:01.133Z,16.88
2023-03-19T12:09:57.537Z,16.27
2023-03-19T12:12:34.486Z,16.60
2023-03-19T12:15:22.117Z,16.38
2023-03-19T12:18:12.998Z,16.90
2023-03-19T12:20:48.561Z,16.27
2023-03-19T12:23:21.715Z,16.92
2023-03-19T12:25:59.771Z,16.88
2023-03-19T12:28:28.747Z,16.50
2023-03-19T12:31:37.142Z,16.52
2023-03-19T12:34:21.052Z,17.08
2023-03-19T12:37:17.462Z,17.33
2023-03-19T12:40:07.852Z,16.80
2023-03-19T12:42:39.857Z,17.65
2023-03-19T12:45:39.104Z,17.45
2023-03-19T12:48:23.354Z,17.42
2023-03-19T12:50:54.499Z,17.60
2023-03-19T12:53:46.828Z,17.15
2023-03-19T12:56:24.672Z,18.90
2023-03-19T12:59:25.016Z,18.40
2023-03-19T13:01:59.503Z,18.42
2023-03-19T13:04:30.010Z,19.02
2023-03-19T13:07:34.773Z,17.05
2023-03-19T13:10:19.618Z,17.27
2023-03-19T13:12:48.946Z,17.70
2023-03-19T13:15:19.664Z,18.20
2023-03-19T13:18:14.641Z,17.85
2023-03-19T13:23:35.147Z,17.75
2023-03-19T13:26:06.473Z,19.13
2023-03-19T13:28:37.073Z,22.38
2023-03-19T13:31:18.117Z,18.63
2023-03-19T13:34:03.157Z,18.85
2023-03-19T13:36:35.573Z,18.35
2023-03-19T13:39:03.687Z,18.80
2023-03-19T13:41:33.421Z,18.42
2023-03-19T13:44:18.652Z,18.85
2023-03-19T13:46:45.835Z,23.13
2023-03-19T13:49:35.864Z,21.10
2023-03-19T13:52:11.957Z,20.75
2023-03-19T13:54:41.570Z,18.65
2023-03-19T13:57:18.355Z,27.35
2023-03-19T13:59:50.486Z,22.05
2023-03-19T14:02:26.292Z,19.42
2023-03-19T14:05:04.345Z,18.15
2023-03-19T14:07:42.345Z,18.30
2023-03-19T14:10:20.544Z,18.00
2023-03-19T14:12:49.268Z,17.90
2023-03-19T14:15:23.543Z,17.88
2023-03-19T14:20:32.916Z,17.48
2023-03-19T14:23:11.251Z,19.23
2023-03-19T14:26:01.498Z,18.52
2023-03-19T14:28:43.263Z,20.23
2023-03-19T14:31:39.084Z,18.02
2023-03-19T14:34:11.851Z,18.02
2023-03-19T14:36:44.294Z,19.77
2023-03-19T14:39:40.613Z,19.63
2023-03-19T14:42:19.560Z,19.60
2023-03-19T14:45:12.809Z,24.92
2023-03-19T14:47:51.662Z,19.40
2023-03-19T14:50:39.155Z,19.98
2023-03-19T14:53:19.327Z,17.95
2023-03-19T14:55:51.527Z,18.63
2023-03-19T14:58:22.341Z,17.27
2023-03-19T15:00:55.697Z,18.58
2023-03-19T15:03:34.113Z,19.30
2023-03-19T15:06:03.990Z,23.10
2023-03-19T15:08:34.228Z,19.25
2023-03-19T15:11:13.388Z,20.15
2023-03-19T15:13:51.766Z,19.52
2023-03-19T15:16:37.522Z,27.42
2023-03-19T15:19:08.246Z,24.17
2023-03-19T15:21:36.678Z,18.98
2023-03-19T15:24:04.840Z,18.20
2023-03-19T15:26:35.042Z,18.33
2023-03-19T15:29:04.244Z,20.60
2023-03-19T15:31:52.372Z,19.88
2023-03-19T15:34:29.411Z,23.52
2023-03-19T15:37:12.335Z,17.58
2023-03-19T15:39:48.425Z,19.90
2023-03-19T15:42:17.007Z,17.73
2023-03-19T15:44:49.459Z,17.98
2023-03-19T15:47:36.988Z,19.17
2023-03-19T15:50:12.548Z,20.58
2023-03-19T15:52:42.992Z,17.65
2023-03-19T15:55:12.791Z,17.00
2023-03-19T15:57:41.408Z,17.13
2023-03-19T16:00:10.675Z,17.65
2023-03-19T16:02:41.868Z,17.05
2023-03-19T16:05:27.459Z,17.67
2023-03-19T16:08:17.349Z,17.10
2023-03-19T16:10:45.904Z,16.58
2023-03-19T16:13:32.641Z,16.60
2023-03-19T16:16:15.096Z,17.60
2023-03-19T16:18:57.015Z,17.20
2023-03-19T16:21:36.500Z,17.48
2023-03-19T16:24:24.666Z,17.40
2023-03-19T16:26:52.395Z,17.98
2023-03-19T16:29:34.572Z,17.02
2023-03-19T16:32:23.607Z,18.00
2023-03-19T16:34:57.263Z,18.15
2023-03-19T16:37:38.068Z,23.13
2023-03-19T16:40:14.095Z,18.30
2023-03-19T16:42:46.225Z,17.67
2023-03-19T16:45:16.370Z,17.83
2023-03-19T16:47:54.594Z,18.02
2023-03-19T16:50:29.800Z,18.02
2023-03-19T16:52:57.780Z,17.60
2023-03-19T16:55:26.520Z,17.83
2023-03-19T16:58:15.630Z,18.83
2023-03-19T17:00:44.213Z,19.85
2023-03-19T17:03:14.575Z,19.35
2023-03-19T17:05:42.250Z,17.92
2023-03-19T17:08:09.743Z,17.70
2023-03-19T17:10:39.790Z,17.40
2023-03-19T17:13:06.948Z,17.88
2023-03-19T17:15:37.703Z,19.35
2023-03-19T17:18:14.416Z,19.95
2023-03-19T17:21:00.919Z,19.13
2023-03-19T17:23:28.074Z,22.80
2023-03-19T17:25:55.465Z,34.30
2023-03-19T17:28:23.204Z,28.70
2023-03-19T17:30:50.863Z,44.22
2023-03-19T17:33:30.807Z,22.58
2023-03-19T17:35:59.224Z,23.90
2023-03-19T17:38:35.440Z,22.73
2023-03-19T17:41:09.820Z,21.50
2023-03-19T17:43:36.753Z,21.90
2023-03-19T17:46:04.024Z,19.80
2023-03-19T17:48:31.169Z,20.02
2023-03-19T17:51:01.565Z,19.52
2023-03-19T17:53:29.218Z,20.67
2023-03-19T17:55:56.216Z,19.98
2023-03-19T17:58:23.299Z,18.75
2023-03-19T18:00:52.294Z,19.70
2023-03-19T18:03:24.337Z,19.30
2023-03-19T18:05:52.160Z,18.58
2023-03-19T18:08:23.784Z,18.58
2023-03-19T18:10:51.639Z,17.98
2023-03-19T18:13:18.691Z,18.42
2023-03-19T18:15:45.939Z,17.52
2023-03-19T18:18:21.113Z,18.20
2023-03-19T18:20:48.361Z,17.80
2023-03-19T18:23:18.641Z,18.40
2023-03-19T18:25:46.494Z,17.98
2023-03-19T18:28:13.825Z,17.77
2023-03-19T18:30:42.121Z,16.98
2023-03-19T18:33:17.617Z,17.60
2023-03-19T18:35:45.766Z,17.85
2023-03-19T18:38:21.998Z,17.25
2023-03-19T18:40:50.219Z,17.35
2023-03-19T18:43:18.473Z,17.42
2023-03-19T18:45:49.479Z,17.33
2023-03-19T18:48:29.016Z,17.23
2023-03-19T18:50:56.368Z,16.95
2023-03-19T18:53:24.092Z,17.08
2023-03-19T18:55:51.906Z,17.52
2023-03-19T18:58:28.039Z,17.63
2023-03-19T19:00:55.468Z,17.27
2023-03-19T19:03:29.646Z,17.55
2023-03-19T19:08:25.365Z,17.33
2023-03-19T19:10:55.460Z,17.17
2023-03-19T19:13:30.469Z,16.75
2023-03-19T19:15:57.794Z,17.73
2023-03-19T19:18:31.950Z,17.48
2023-03-19T19:23:28.357Z,17.20
2023-03-19T19:25:56.149Z,17.23
2023-03-19T19:28:34.841Z,18.02
2023-03-19T19:31:02.279Z,18.63
2023-03-19T19:33:38.247Z,17.73
2023-03-19T19:36:05.756Z,18.17
2023-03-19T19:38:32.844Z,17.60
2023-03-19T19:41:00.528Z,17.88
2023-03-19T19:43:31.262Z,18.42
2023-03-19T19:45:59.187Z,18.65
2023-03-19T19:48:31.568Z,18.45
2023-03-19T19:50:58.771Z,17.67
2023-03-19T19:53:26.614Z,17.73
2023-03-19T19:55:54.215Z,17.52
2023-03-19T19:58:33.492Z,18.23
2023-03-19T20:01:04.175Z,17.92
2023-03-19T20:03:33.562Z,18.13
2023-03-19T20:06:01.679Z,18.27
2023-03-19T20:08:28.967Z,18.83
2023-03-19T20:10:56.959Z,18.67
2023-03-19T20:13:37.845Z,19.17
2023-03-19T20:16:05.071Z,21.60
2023-03-19T20:18:35.686Z,23.73
2023-03-19T20:21:04.334Z,19.90
2023-03-19T20:23:31.496Z,20.63
2023-03-19T20:25:58.595Z,18.20
2023-03-19T20:28:32.648Z,18.50
2023-03-19T20:31:00.575Z,19.15
2023-03-19T20:33:28.334Z,19.70
2023-03-19T20:35:55.667Z,27.73
2023-03-19T20:38:23.086Z,21.10
2023-03-19T20:40:53.002Z,20.20
2023-03-19T20:43:28.320Z,19.65
2023-03-19T20:45:57.362Z,20.10
2023-03-19T20:48:25.794Z,20.38
2023-03-19T20:50:53.440Z,20.13
2023-03-19T20:53:22.655Z,20.00
2023-03-19T20:55:50.513Z,20.80
2023-03-19T20:58:34.614Z,20.60
2023-03-19T21:01:02.956Z,19.98
2023-03-19T21:03:32.299Z,19.85
2023-03-19T21:06:15.327Z,20.38
2023-03-19T21:08:46.111Z,20.40
2023-03-19T21:11:21.232Z,21.17
2023-03-19T21:13:53.282Z,20.70
2023-03-19T21:16:22.874Z,22.80
2023-03-19T21:18:51.893Z,23.42
2023-03-19T21:21:27.233Z,23.02
2023-03-19T21:24:02.086Z,23.30
2023-03-19T21:26:29.155Z,22.90
2023-03-19T21:29:03.914Z,24.17
2023-03-19T21:31:31.072Z,23.92
2023-03-19T21:33:58.661Z,24.52
2023-03-19T21:36:26.032Z,24.08
2023-03-19T21:38:53.134Z,27.33
2023-03-19T21:41:28.913Z,44.42
2023-03-19T21:43:59.691Z,30.83
2023-03-19T21:46:29.783Z,28.77
2023-03-19T21:48:58.350Z,25.95
2023-03-19T21:51:28.322Z,24.42
2023-03-19T21:53:55.545Z,24.63
2023-03-19T21:56:24.200Z,24.23
2023-03-19T21:58:53.048Z,24.23
2023-03-19T22:01:25.504Z,23.95
2023-03-19T22:03:54.066Z,23.60
2023-03-19T22:06:22.223Z,25.50
2023-03-19T22:08:49.356Z,25.08
2023-03-19T22:11:37.448Z,25.15
2023-03-19T22:14:12.943Z,25.92
2023-03-19T22:16:40.177Z,25.75
2023-03-19T22:19:07.143Z,24.80
2023-03-19T22:21:34.649Z,23.95
2023-03-19T22:24:01.687Z,23.35
2023-03-19T22:26:35.106Z,23.00
2023-03-19T22:29:11.140Z,23.08
2023-03-19T22:31:38.227Z,23.77
2023-03-19T22:34:05.623Z,23.65
2023-03-19T22:36:32.604Z,23.30
2023-03-19T22:38:59.634Z,23.48
2023-03-19T22:41:35.335Z,22.70
2023-03-19T22:44:05.800Z,23.77
2023-03-19T22:46:33.335Z,23.05
2023-03-19T22:49:01.696Z,23.08
2023-03-19T22:51:28.785Z,23.73
2023-03-19T22:53:55.991Z,25.27
2023-03-19T22:56:23.741Z,23.10
2023-03-19T22:58:50.977Z,22.92
2023-03-19T23:01:21.277Z,22.63
2023-03-19T23:03:49.750Z,22.25
2023-03-19T23:06:30.379Z,23.63
2023-03-19T23:08:58.541Z,22.85
2023-03-19T23:11:25.704Z,22.63
2023-03-19T23:13:54.666Z,22.90
2023-03-19T23:16:25.002Z,22.65
2023-03-19T23:21:21.004Z,21.85
2023-03-19T23:23:48.001Z,22.20
2023-03-19T23:26:46.022Z,21.88
2023-03-19T23:29:24.370Z,22.65
2023-03-19T23:31:52.018Z,22.55
2023-03-19T23:34:19.000Z,22.83
2023-03-19T23:36:46.419Z,22.20
2023-03-19T23:39:14.153Z,22.40
2023-03-19T23:41:48.450Z,21.92
2023-03-19T23:44:17.871Z,21.52
2023-03-19T23:46:47.286Z,20.77
2023-03-19T23:49:16.738Z,21.20
2023-03-19T23:51:43.840Z,21.10
2023-03-19T23:54:39.317Z,21.05
2023-03-19T23:57:12.655Z,20.00
2023-03-19T23:59:43.159Z,20.23
